sensor_id;sensor_type;location;lat;lon;timestamp;pressure;altitude;pressure_sealevel;temperature;humidity
51603;BME280;37954;51.980;5.850;2023-03-03T00:03:46;102137.19;;;3.17;83.27
51603;BME280;37954;51.980;5.850;2023-03-03T00:07:59;102123.78;;;3.09;82.79
51603;BME280;37954;51.980;5.850;2023-03-03T00:12:24;102136.91;;;3.20;83.33
51603;BME280;37954;51.980;5.850;2023-03-03T00:16:37;102137.75;;;3.21;83.44
51603;BME280;37954;51.980;5.850;2023-03-03T00:20:56;102155.06;;;3.25;83.16
51603;BME280;37954;51.980;5.850;2023-03-03T00:29:45;102148.09;;;3.24;82.64
51603;BME280;37954;51.980;5.850;2023-03-03T00:34:10;102149.75;;;3.15;83.00
51603;BME280;37954;51.980;5.850;2023-03-03T00:38:33;102140.81;;;3.06;82.96
51603;BME280;37954;51.980;5.850;2023-03-03T00:42:53;102140.28;;;2.93;82.92
51603;BME280;37954;51.980;5.850;2023-03-03T00:51:42;102137.31;;;2.77;83.08
51603;BME280;37954;51.980;5.850;2023-03-03T00:55:54;102140.66;;;2.79;83.52
51603;BME280;37954;51.980;5.850;2023-03-03T01:00:07;102147.94;;;2.77;83.74
51603;BME280;37954;51.980;5.850;2023-03-03T01:04:19;102141.09;;;2.74;83.91
51603;BME280;37954;51.980;5.850;2023-03-03T01:08:31;102153.50;;;2.84;83.83
51603;BME280;37954;51.980;5.850;2023-03-03T01:12:44;102145.28;;;2.77;84.04
51603;BME280;37954;51.980;5.850;2023-03-03T01:16:57;102150.16;;;2.72;83.48
51603;BME280;37954;51.980;5.850;2023-03-03T01:21:09;102144.16;;;2.70;83.81
51603;BME280;37954;51.980;5.850;2023-03-03T01:25:22;102140.66;;;2.60;84.13
51603;BME280;37954;51.980;5.850;2023-03-03T01:29:34;102132.81;;;2.58;83.92
51603;BME280;37954;51.980;5.850;2023-03-03T01:33:45;102144.53;;;2.56;83.92
51603;BME280;37954;51.980;5.850;2023-03-03T01:37:57;102152.22;;;2.59;83.74
51603;BME280;37954;51.980;5.850;2023-03-03T01:42:09;102151.41;;;2.58;83.53
51603;BME280;37954;51.980;5.850;2023-03-03T01:55:29;102159.75;;;2.63;82.75
51603;BME280;37954;51.980;5.850;2023-03-03T01:59:46;102151.53;;;2.66;82.91
51603;BME280;37954;51.980;5.850;2023-03-03T02:03:59;102155.03;;;2.67;83.07
51603;BME280;37954;51.980;5.850;2023-03-03T02:08:15;102155.03;;;2.67;82.93
51603;BME280;37954;51.980;5.850;2023-03-03T02:12:53;102175.44;;;2.76;83.13
51603;BME280;37954;51.980;5.850;2023-03-03T02:17:05;102163.41;;;2.72;83.17
51603;BME280;37954;51.980;5.850;2023-03-03T02:21:22;102158.13;;;2.72;83.24
51603;BME280;37954;51.980;5.850;2023-03-03T02:30:18;102164.53;;;2.79;83.17
51603;BME280;37954;51.980;5.850;2023-03-03T02:34:30;102157.13;;;2.73;82.84
51603;BME280;37954;51.980;5.850;2023-03-03T02:39:10;102150.25;;;2.61;83.16
51603;BME280;37954;51.980;5.850;2023-03-03T02:43:32;102160.88;;;2.61;83.48
51603;BME280;37954;51.980;5.850;2023-03-03T02:47:49;102169.84;;;2.69;83.24
51603;BME280;37954;51.980;5.850;2023-03-03T02:52:05;102164.84;;;2.76;83.23
51603;BME280;37954;51.980;5.850;2023-03-03T02:56:17;102153.06;;;2.69;83.36
51603;BME280;37954;51.980;5.850;2023-03-03T03:00:29;102151.41;;;2.77;83.05
51603;BME280;37954;51.980;5.850;2023-03-03T03:04:42;102160.38;;;2.86;82.87
51603;BME280;37954;51.980;5.850;2023-03-03T03:08:59;102150.59;;;2.77;83.12
51603;BME280;37954;51.980;5.850;2023-03-03T03:13:11;102141.34;;;2.81;82.75
51603;BME280;37954;51.980;5.850;2023-03-03T03:17:25;102150.16;;;2.82;82.35
51603;BME280;37954;51.980;5.850;2023-03-03T03:21:38;102163.03;;;2.86;82.89
51603;BME280;37954;51.980;5.850;2023-03-03T03:25:51;102142.06;;;2.73;82.44
51603;BME280;37954;51.980;5.850;2023-03-03T03:30:09;102150.44;;;2.78;82.54
51603;BME280;37954;51.980;5.850;2023-03-03T03:34:21;102148.47;;;2.80;83.00
51603;BME280;37954;51.980;5.850;2023-03-03T03:38:35;102165.84;;;2.94;83.29
51603;BME280;37954;51.980;5.850;2023-03-03T03:42:49;102164.56;;;2.98;82.80
51603;BME280;37954;51.980;5.850;2023-03-03T03:47:01;102156.88;;;2.95;83.04
51603;BME280;37954;51.980;5.850;2023-03-03T03:51:13;102163.44;;;3.01;82.55
51603;BME280;37954;51.980;5.850;2023-03-03T03:55:25;102164.00;;;2.95;82.42
51603;BME280;37954;51.980;5.850;2023-03-03T03:59:37;102169.59;;;3.01;82.73
51603;BME280;37954;51.980;5.850;2023-03-03T04:03:49;102160.09;;;2.99;82.78
51603;BME280;37954;51.980;5.850;2023-03-03T04:08:06;102166.09;;;3.01;82.67
51603;BME280;37954;51.980;5.850;2023-03-03T04:12:17;102155.50;;;2.91;82.81
51603;BME280;37954;51.980;5.850;2023-03-03T04:16:30;102157.88;;;2.94;82.54
51603;BME280;37954;51.980;5.850;2023-03-03T04:20:42;102167.09;;;2.90;82.45
51603;BME280;37954;51.980;5.850;2023-03-03T04:24:54;102160.50;;;2.85;82.56
51603;BME280;37954;51.980;5.850;2023-03-03T04:29:06;102114.81;;;2.62;82.43
51603;BME280;37954;51.980;5.850;2023-03-03T04:33:18;102172.78;;;2.95;82.41
51603;BME280;37954;51.980;5.850;2023-03-03T04:37:30;102159.38;;;2.87;82.41
51603;BME280;37954;51.980;5.850;2023-03-03T04:41:42;102168.34;;;3.05;81.99
51603;BME280;37954;51.980;5.850;2023-03-03T04:45:53;102161.91;;;2.98;82.12
51603;BME280;37954;51.980;5.850;2023-03-03T04:50:07;102146.81;;;2.99;82.36
51603;BME280;37954;51.980;5.850;2023-03-03T04:54:19;102148.50;;;3.00;81.95
51603;BME280;37954;51.980;5.850;2023-03-03T04:58:31;102160.66;;;3.02;82.12
51603;BME280;37954;51.980;5.850;2023-03-03T05:02:44;102168.88;;;2.99;82.05
51603;BME280;37954;51.980;5.850;2023-03-03T05:06:58;102167.38;;;3.06;81.77
51603;BME280;37954;51.980;5.850;2023-03-03T05:11:09;102181.06;;;3.11;81.80
51603;BME280;37954;51.980;5.850;2023-03-03T05:15:21;102185.53;;;3.11;81.86
51603;BME280;37954;51.980;5.850;2023-03-03T05:19:33;102181.75;;;3.04;82.31
51603;BME280;37954;51.980;5.850;2023-03-03T05:23:45;102177.84;;;2.98;82.76
51603;BME280;37954;51.980;5.850;2023-03-03T05:27:57;102150.84;;;2.84;82.86
51603;BME280;37954;51.980;5.850;2023-03-03T05:32:09;102175.75;;;2.92;82.79
51603;BME280;37954;51.980;5.850;2023-03-03T05:36:21;102176.44;;;2.94;82.97
51603;BME280;37954;51.980;5.850;2023-03-03T05:40:33;102179.25;;;2.93;83.11
51603;BME280;37954;51.980;5.850;2023-03-03T05:44:44;102190.56;;;3.04;82.89
51603;BME280;37954;51.980;5.850;2023-03-03T05:48:56;102196.84;;;3.03;82.76
51603;BME280;37954;51.980;5.850;2023-03-03T05:53:08;102197.97;;;2.91;83.01
51603;BME280;37954;51.980;5.850;2023-03-03T05:57:19;102194.69;;;2.78;83.05
51603;BME280;37954;51.980;5.850;2023-03-03T06:01:31;102196.81;;;2.84;83.04
51603;BME280;37954;51.980;5.850;2023-03-03T06:05:43;102198.34;;;2.87;82.92
51603;BME280;37954;51.980;5.850;2023-03-03T06:09:55;102190.41;;;2.87;83.23
51603;BME280;37954;51.980;5.850;2023-03-03T06:14:08;102200.88;;;2.98;82.55
51603;BME280;37954;51.980;5.850;2023-03-03T06:18:20;102211.50;;;2.98;82.77
51603;BME280;37954;51.980;5.850;2023-03-03T06:22:31;102221.56;;;2.94;82.66
51603;BME280;37954;51.980;5.850;2023-03-03T06:26:43;102214.16;;;2.88;83.93
51603;BME280;37954;51.980;5.850;2023-03-03T06:30:55;102225.47;;;2.90;83.66
51603;BME280;37954;51.980;5.850;2023-03-03T06:35:07;102210.38;;;2.91;83.43
51603;BME280;37954;51.980;5.850;2023-03-03T06:39:18;102226.31;;;3.00;83.41
51603;BME280;37954;51.980;5.850;2023-03-03T06:43:30;102231.63;;;3.00;83.38
51603;BME280;37954;51.980;5.850;2023-03-03T06:47:42;102228.84;;;3.02;83.75
51603;BME280;37954;51.980;5.850;2023-03-03T06:51:53;102234.28;;;3.00;83.84
51603;BME280;37954;51.980;5.850;2023-03-03T06:56:07;102226.19;;;3.02;83.65
51603;BME280;37954;51.980;5.850;2023-03-03T07:00:25;102238.19;;;3.06;83.90
51603;BME280;37954;51.980;5.850;2023-03-03T07:04:40;102236.81;;;3.11;83.94
51603;BME280;37954;51.980;5.850;2023-03-03T07:08:53;102244.66;;;3.23;83.18
51603;BME280;37954;51.980;5.850;2023-03-03T07:13:23;102249.25;;;3.21;83.65
51603;BME280;37954;51.980;5.850;2023-03-03T07:17:39;102249.97;;;3.23;83.85
51603;BME280;37954;51.980;5.850;2023-03-03T07:21:52;102260.19;;;3.27;83.97
51603;BME280;37954;51.980;5.850;2023-03-03T07:26:11;102260.59;;;3.23;84.31
51603;BME280;37954;51.980;5.850;2023-03-03T07:30:26;102263.25;;;3.23;84.80
51603;BME280;37954;51.980;5.850;2023-03-03T07:34:42;102266.16;;;3.29;84.92
51603;BME280;37954;51.980;5.850;2023-03-03T07:38:59;102274.44;;;3.36;84.82
51603;BME280;37954;51.980;5.850;2023-03-03T07:47:33;102280.44;;;3.47;84.99
51603;BME280;37954;51.980;5.850;2023-03-03T07:51:46;102278.75;;;3.46;84.74
51603;BME280;37954;51.980;5.850;2023-03-03T07:55:58;102273.75;;;3.53;85.09
51603;BME280;37954;51.980;5.850;2023-03-03T08:04:41;102300.47;;;3.71;84.47
51603;BME280;37954;51.980;5.850;2023-03-03T08:09:00;102292.06;;;3.75;85.03
51603;BME280;37954;51.980;5.850;2023-03-03T08:13:27;102293.47;;;3.70;84.22
51603;BME280;37954;51.980;5.850;2023-03-03T08:17:41;102299.91;;;3.77;84.69
51603;BME280;37954;51.980;5.850;2023-03-03T08:21:59;102320.31;;;3.86;84.11
51603;BME280;37954;51.980;5.850;2023-03-03T08:26:13;102316.81;;;3.85;84.27
51603;BME280;37954;51.980;5.850;2023-03-03T08:30:27;102344.78;;;3.99;83.87
51603;BME280;37954;51.980;5.850;2023-03-03T08:34:38;102310.41;;;3.98;83.85
51603;BME280;37954;51.980;5.850;2023-03-03T08:38:51;102331.34;;;4.20;83.62
51603;BME280;37954;51.980;5.850;2023-03-03T08:43:03;102326.59;;;4.14;83.12
51603;BME280;37954;51.980;5.850;2023-03-03T08:47:15;102338.94;;;4.15;82.76
51603;BME280;37954;51.980;5.850;2023-03-03T08:51:27;102328.13;;;4.16;82.67
51603;BME280;37954;51.980;5.850;2023-03-03T08:55:39;102342.94;;;4.38;82.53
51603;BME280;37954;51.980;5.850;2023-03-03T08:59:51;102292.41;;;4.19;82.17
51603;BME280;37954;51.980;5.850;2023-03-03T09:04:02;102325.03;;;4.31;81.91
51603;BME280;37954;51.980;5.850;2023-03-03T09:08:14;102336.44;;;4.60;81.27
51603;BME280;37954;51.980;5.850;2023-03-03T09:12:30;102344.22;;;4.81;80.98
51603;BME280;37954;51.980;5.850;2023-03-03T09:16:49;102322.31;;;4.87;80.55
51603;BME280;37954;51.980;5.850;2023-03-03T09:21:01;102331.13;;;4.97;79.52
51603;BME280;37954;51.980;5.850;2023-03-03T09:25:21;102335.34;;;5.17;79.12
51603;BME280;37954;51.980;5.850;2023-03-03T09:29:36;102337.16;;;5.44;77.84
51603;BME280;37954;51.980;5.850;2023-03-03T09:33:48;102300.38;;;5.48;77.75
51603;BME280;37954;51.980;5.850;2023-03-03T09:42:51;102321.56;;;6.03;75.28
51603;BME280;37954;51.980;5.850;2023-03-03T10:05:16;102338.75;;;8.27;66.84
51603;BME280;37954;51.980;5.850;2023-03-03T10:19:39;102355.63;;;7.71;65.98
51603;BME280;37954;51.980;5.850;2023-03-03T10:28:57;102356.78;;;9.83;66.32
51603;BME280;37954;51.980;5.850;2023-03-03T10:34:09;102352.53;;;11.37;64.04
51603;BME280;37954;51.980;5.850;2023-03-03T11:10:27;102354.78;;;16.29;45.38
51603;BME280;37954;51.980;5.850;2023-03-03T11:28:32;102332.28;;;13.77;44.17
51603;BME280;37954;51.980;5.850;2023-03-03T11:33:28;102333.13;;;14.24;45.06
51603;BME280;37954;51.980;5.850;2023-03-03T11:42:30;102314.00;;;14.45;44.39
51603;BME280;37954;51.980;5.850;2023-03-03T11:46:58;102329.00;;;14.41;44.55
51603;BME280;37954;51.980;5.850;2023-03-03T11:51:22;102317.09;;;14.03;44.45
51603;BME280;37954;51.980;5.850;2023-03-03T11:55:41;102317.94;;;13.90;44.86
51603;BME280;37954;51.980;5.850;2023-03-03T12:04:34;102309.00;;;14.03;44.32
51603;BME280;37954;51.980;5.850;2023-03-03T12:13:45;102317.94;;;14.69;43.64
51603;BME280;37954;51.980;5.850;2023-03-03T12:18:08;102293.22;;;15.10;43.01
51603;BME280;37954;51.980;5.850;2023-03-03T12:27:40;102290.22;;;15.70;41.68
51603;BME280;37954;51.980;5.850;2023-03-03T12:41:07;102276.88;;;13.20;43.29
51603;BME280;37954;51.980;5.850;2023-03-03T12:59:03;102283.16;;;13.41;43.03
51603;BME280;37954;51.980;5.850;2023-03-03T13:07:43;102270.16;;;13.77;42.87
51603;BME280;37954;51.980;5.850;2023-03-03T13:12:02;102242.81;;;13.13;42.36
51603;BME280;37954;51.980;5.850;2023-03-03T13:16:38;102254.84;;;12.63;43.14
51603;BME280;37954;51.980;5.850;2023-03-03T13:29:59;102241.75;;;12.25;43.47
51603;BME280;37954;51.980;5.850;2023-03-03T13:34:33;102222.69;;;11.99;43.25
51603;BME280;37954;51.980;5.850;2023-03-03T13:38:55;102242.47;;;11.84;43.41
51603;BME280;37954;51.980;5.850;2023-03-03T13:43:18;102244.78;;;11.88;43.19
51603;BME280;37954;51.980;5.850;2023-03-03T13:52:20;102242.91;;;12.09;44.23
51603;BME280;37954;51.980;5.850;2023-03-03T14:00:58;102245.22;;;11.70;45.92
51603;BME280;37954;51.980;5.850;2023-03-03T14:19:33;102225.50;;;11.41;47.21
51603;BME280;37954;51.980;5.850;2023-03-03T14:23:58;102231.72;;;11.42;47.12
51603;BME280;37954;51.980;5.850;2023-03-03T14:28:11;102230.09;;;11.26;47.43
51603;BME280;37954;51.980;5.850;2023-03-03T14:32:26;102235.72;;;11.10;47.65
51603;BME280;37954;51.980;5.850;2023-03-03T14:37:18;102206.13;;;10.89;47.64
51603;BME280;37954;51.980;5.850;2023-03-03T14:41:40;102229.13;;;11.12;48.14
51603;BME280;37954;51.980;5.850;2023-03-03T14:45:53;102205.78;;;11.34;47.91
51603;BME280;37954;51.980;5.850;2023-03-03T14:50:29;102201.88;;;11.58;47.46
51603;BME280;37954;51.980;5.850;2023-03-03T14:54:44;102212.44;;;11.60;47.47
51603;BME280;37954;51.980;5.850;2023-03-03T14:59:16;102215.63;;;11.48;48.06
51603;BME280;37954;51.980;5.850;2023-03-03T15:03:29;102204.44;;;11.24;48.38
51603;BME280;37954;51.980;5.850;2023-03-03T15:07:43;102190.13;;;11.02;48.56
51603;BME280;37954;51.980;5.850;2023-03-03T15:11:57;102212.34;;;10.89;48.58
51603;BME280;37954;51.980;5.850;2023-03-03T15:16:16;102196.34;;;10.66;49.22
51603;BME280;37954;51.980;5.850;2023-03-03T15:20:47;102196.59;;;10.71;49.29
51603;BME280;37954;51.980;5.850;2023-03-03T15:25:11;102198.91;;;10.74;48.99
51603;BME280;37954;51.980;5.850;2023-03-03T15:29:33;102185.25;;;10.55;49.10
51603;BME280;37954;51.980;5.850;2023-03-03T15:38:30;102183.31;;;10.34;50.25
51603;BME280;37954;51.980;5.850;2023-03-03T15:42:51;102194.63;;;10.06;51.65
51603;BME280;37954;51.980;5.850;2023-03-03T15:47:09;102178.88;;;9.89;51.84
51603;BME280;37954;51.980;5.850;2023-03-03T15:51:40;102185.47;;;9.86;52.44
51603;BME280;37954;51.980;5.850;2023-03-03T16:05:45;102180.06;;;9.71;52.48
51603;BME280;37954;51.980;5.850;2023-03-03T16:14:53;102169.03;;;9.52;52.69
51603;BME280;37954;51.980;5.850;2023-03-03T16:19:22;102196.06;;;9.65;52.97
51603;BME280;37954;51.980;5.850;2023-03-03T16:23:45;102192.38;;;9.66;53.49
51603;BME280;37954;51.980;5.850;2023-03-03T16:28:08;102190.88;;;9.63;53.53
51603;BME280;37954;51.980;5.850;2023-03-03T16:32:36;102182.19;;;9.38;53.93
51603;BME280;37954;51.980;5.850;2023-03-03T16:37:13;102193.94;;;9.37;53.72
51603;BME280;37954;51.980;5.850;2023-03-03T16:41:36;102199.03;;;9.32;53.69
51603;BME280;37954;51.980;5.850;2023-03-03T16:45:57;102200.91;;;9.24;53.49
51603;BME280;37954;51.980;5.850;2023-03-03T16:54:38;102181.34;;;8.92;53.73
51603;BME280;37954;51.980;5.850;2023-03-03T16:59:24;102176.13;;;8.68;53.94
51603;BME280;37954;51.980;5.850;2023-03-03T17:03:58;102197.44;;;8.61;54.09
51603;BME280;37954;51.980;5.850;2023-03-03T17:26:07;102224.53;;;8.11;56.12
51603;BME280;37954;51.980;5.850;2023-03-03T17:30:57;102233.84;;;8.15;56.75
51603;BME280;37954;51.980;5.850;2023-03-03T17:35:50;102223.19;;;8.07;56.83
51603;BME280;37954;51.980;5.850;2023-03-03T17:45:15;102242.75;;;7.99;56.80
51603;BME280;37954;51.980;5.850;2023-03-03T17:54:34;102237.41;;;7.83;56.82
51603;BME280;37954;51.980;5.850;2023-03-03T18:13:39;102257.84;;;7.76;56.88
51603;BME280;37954;51.980;5.850;2023-03-03T18:18:27;102269.38;;;7.93;56.76
51603;BME280;37954;51.980;5.850;2023-03-03T18:22:44;102256.66;;;7.87;56.83
51603;BME280;37954;51.980;5.850;2023-03-03T18:27:35;102262.34;;;7.92;56.75
51603;BME280;37954;51.980;5.850;2023-03-03T18:36:34;102279.56;;;7.89;57.05
51603;BME280;37954;51.980;5.850;2023-03-03T18:40:57;102265.34;;;7.81;57.11
51603;BME280;37954;51.980;5.850;2023-03-03T18:54:18;102281.06;;;7.76;57.36
51603;BME280;37954;51.980;5.850;2023-03-03T18:58:41;102273.88;;;7.68;57.32
51603;BME280;37954;51.980;5.850;2023-03-03T19:02:58;102282.56;;;7.70;57.28
51603;BME280;37954;51.980;5.850;2023-03-03T19:07:25;102292.59;;;7.68;58.04
51603;BME280;37954;51.980;5.850;2023-03-03T19:11:49;102297.25;;;7.66;57.73
51603;BME280;37954;51.980;5.850;2023-03-03T19:20:40;102291.72;;;7.51;58.39
51603;BME280;37954;51.980;5.850;2023-03-03T19:29:48;102307.66;;;7.61;59.12
51603;BME280;37954;51.980;5.850;2023-03-03T19:34:14;102288.06;;;7.52;59.14
51603;BME280;37954;51.980;5.850;2023-03-03T19:43:29;102300.78;;;7.58;59.88
51603;BME280;37954;51.980;5.850;2023-03-03T19:52:02;102287.03;;;7.45;60.18
51603;BME280;37954;51.980;5.850;2023-03-03T20:01:03;102301.59;;;7.51;60.58
51603;BME280;37954;51.980;5.850;2023-03-03T20:05:46;102308.47;;;7.53;60.59
51603;BME280;37954;51.980;5.850;2023-03-03T20:19:41;102307.66;;;7.61;60.79
51603;BME280;37954;51.980;5.850;2023-03-03T20:24:22;102304.28;;;7.59;60.67
51603;BME280;37954;51.980;5.850;2023-03-03T20:55:55;102299.94;;;7.66;61.56
51603;BME280;37954;51.980;5.850;2023-03-03T21:04:29;102297.25;;;7.66;61.32
51603;BME280;37954;51.980;5.850;2023-03-03T21:08:55;102290.25;;;7.57;61.51
51603;BME280;37954;51.980;5.850;2023-03-03T21:13:39;102303.97;;;7.70;61.47
51603;BME280;37954;51.980;5.850;2023-03-03T21:17:52;102281.38;;;7.48;62.01
51603;BME280;37954;51.980;5.850;2023-03-03T21:34:44;102305.09;;;7.51;62.36
51603;BME280;37954;51.980;5.850;2023-03-03T21:59:05;102291.22;;;7.48;62.99
51603;BME280;37954;51.980;5.850;2023-03-03T22:17:07;102288.72;;;7.46;63.04
51603;BME280;37954;51.980;5.850;2023-03-03T22:53:16;102296.72;;;7.46;63.22
51603;BME280;37954;51.980;5.850;2023-03-03T22:58:03;102278.34;;;7.35;63.46
51603;BME280;37954;51.980;5.850;2023-03-03T23:02:55;102289.72;;;7.45;63.69
51603;BME280;37954;51.980;5.850;2023-03-03T23:07:09;102286.19;;;7.45;63.61
51603;BME280;37954;51.980;5.850;2023-03-03T23:11:21;102289.38;;;7.40;63.68
51603;BME280;37954;51.980;5.850;2023-03-03T23:15:35;102284.69;;;7.34;63.76
51603;BME280;37954;51.980;5.850;2023-03-03T23:19:47;102292.69;;;7.34;63.95
51603;BME280;37954;51.980;5.850;2023-03-03T23:23:59;102292.53;;;7.36;63.85
51603;BME280;37954;51.980;5.850;2023-03-03T23:28:11;102277.50;;;7.34;63.84
51603;BME280;37954;51.980;5.850;2023-03-03T23:32:26;102280.34;;;7.33;64.09
51603;BME280;37954;51.980;5.850;2023-03-03T23:36:38;102284.84;;;7.24;64.04
51603;BME280;37954;51.980;5.850;2023-03-03T23:40:49;102281.66;;;7.21;64.16
51603;BME280;37954;51.980;5.850;2023-03-03T23:45:02;102268.63;;;7.18;63.97
51603;BME280;37954;51.980;5.850;2023-03-03T23:49:14;102282.84;;;7.26;63.97
51603;BME280;37954;51.980;5.850;2023-03-03T23:53:26;102278.50;;;7.25;64.13
51603;BME280;37954;51.980;5.850;2023-03-03T23:57:37;102268.78;;;7.16;64.30
